createdAt,value
2023-04-27T00:02:12.463Z,3.27
2023-04-27T00:04:40.754Z,2.87
2023-04-27T00:07:09.305Z,2.80
2023-04-27T00:09:38.580Z,2.80
2023-04-27T00:12:06.852Z,2.80
2023-04-27T00:14:34.845Z,2.57
2023-04-27T00:17:02.798Z,2.60
2023-04-27T00:19:30.750Z,2.43
2023-04-27T00:22:00.538Z,2.40
2023-04-27T00:24:28.583Z,2.80
2023-04-27T00:26:57.883Z,2.60
2023-04-27T00:29:25.863Z,2.70
2023-04-27T00:31:53.946Z,2.70
2023-04-27T00:34:21.952Z,2.50
2023-04-27T00:36:49.855Z,2.47
2023-04-27T00:39:18.138Z,2.80
2023-04-27T00:41:46.113Z,2.67
2023-04-27T00:44:15.466Z,2.17
2023-04-27T00:46:43.417Z,2.27
2023-04-27T00:49:11.653Z,2.13
2023-04-27T00:51:39.732Z,2.27
2023-04-27T00:54:11.164Z,2.20
2023-04-27T00:56:39.127Z,2.13
2023-04-27T00:59:07.066Z,2.50
2023-04-27T01:01:36.428Z,2.90
2023-04-27T01:04:04.585Z,2.43
2023-04-27T01:06:32.611Z,2.87
2023-04-27T01:09:00.655Z,2.43
2023-04-27T01:11:28.543Z,2.33
2023-04-27T01:13:57.174Z,2.77
2023-04-27T01:16:25.091Z,2.47
2023-04-27T01:18:54.473Z,2.57
2023-04-27T01:21:22.524Z,2.50
2023-04-27T01:23:51.829Z,2.17
2023-04-27T01:26:20.060Z,2.47
2023-04-27T01:28:48.139Z,2.30
2023-04-27T01:31:16.271Z,2.03
2023-04-27T01:33:44.265Z,2.40
2023-04-27T01:36:12.223Z,2.10
2023-04-27T01:38:40.235Z,2.23
2023-04-27T01:41:09.576Z,2.43
2023-04-27T01:43:38.326Z,2.40
2023-04-27T01:46:07.037Z,2.63
2023-04-27T01:48:35.200Z,2.40
2023-04-27T01:51:03.862Z,2.30
2023-04-27T01:53:31.846Z,2.40
2023-04-27T01:56:00.384Z,2.40
2023-04-27T01:58:29.919Z,2.23
2023-04-27T02:00:57.852Z,2.30
2023-04-27T02:03:26.401Z,2.37
2023-04-27T02:05:54.541Z,2.13
2023-04-27T02:08:22.507Z,2.00
2023-04-27T02:10:50.437Z,2.33
2023-04-27T02:13:18.393Z,2.20
2023-04-27T02:15:47.776Z,1.90
2023-04-27T02:18:16.014Z,2.60
2023-04-27T02:20:43.990Z,2.23
2023-04-27T02:23:11.912Z,2.40
2023-04-27T02:25:43.077Z,2.30
2023-04-27T02:28:10.976Z,2.37
2023-04-27T02:30:39.409Z,2.00
2023-04-27T02:33:08.829Z,2.20
2023-04-27T02:35:36.789Z,2.10
2023-04-27T02:38:04.765Z,2.27
2023-04-27T02:40:35.569Z,2.17
2023-04-27T02:43:04.158Z,2.20
2023-04-27T02:45:32.093Z,2.30
2023-04-27T02:48:00.004Z,2.50
2023-04-27T02:50:29.515Z,2.13
2023-04-27T02:52:57.563Z,2.30
2023-04-27T02:55:25.626Z,2.10
2023-04-27T02:57:53.507Z,2.13
2023-04-27T03:00:24.538Z,2.17
2023-04-27T03:02:55.313Z,2.20
2023-04-27T03:05:23.373Z,2.07
2023-04-27T03:07:52.721Z,2.33
2023-04-27T03:10:20.664Z,2.40
2023-04-27T03:12:48.586Z,2.63
2023-04-27T03:15:16.605Z,2.50
2023-04-27T03:17:44.609Z,2.53
2023-04-27T03:20:13.108Z,2.17
2023-04-27T03:22:41.124Z,2.30
2023-04-27T03:25:10.894Z,2.20
2023-04-27T03:27:38.874Z,2.53
2023-04-27T03:30:07.571Z,2.27
2023-04-27T03:32:35.509Z,3.00
2023-04-27T03:35:04.056Z,2.23
2023-04-27T03:37:32.900Z,2.57
2023-04-27T03:40:00.977Z,2.43
2023-04-27T03:42:30.360Z,3.20
2023-04-27T03:44:58.279Z,3.00
2023-04-27T03:47:29.076Z,2.47
2023-04-27T03:49:57.271Z,2.20
2023-04-27T03:52:25.258Z,2.10
2023-04-27T03:54:56.188Z,2.70
2023-04-27T03:57:24.061Z,2.80
2023-04-27T03:59:53.432Z,3.07
2023-04-27T04:02:22.311Z,2.70
2023-04-27T04:04:50.379Z,2.20
2023-04-27T04:07:18.298Z,2.40
2023-04-27T04:09:46.349Z,2.20
2023-04-27T04:12:14.263Z,2.47
2023-04-27T04:14:43.017Z,2.57
2023-04-27T04:17:12.442Z,2.37
2023-04-27T04:19:40.334Z,2.40
2023-04-27T04:22:08.300Z,2.53
2023-04-27T04:24:36.282Z,2.73
2023-04-27T04:27:04.787Z,2.60
2023-04-27T04:29:33.019Z,2.57
2023-04-27T04:32:01.112Z,2.70
2023-04-27T04:34:30.457Z,2.77
2023-04-27T04:36:58.542Z,2.67
2023-04-27T04:39:27.086Z,3.27
2023-04-27T04:41:54.997Z,3.20
2023-04-27T04:44:22.862Z,2.90
2023-04-27T04:46:51.370Z,3.10
2023-04-27T04:49:19.328Z,2.90
2023-04-27T04:51:48.700Z,3.07
2023-04-27T04:54:16.588Z,2.83
2023-04-27T04:56:44.511Z,3.23
2023-04-27T04:59:12.662Z,3.40
2023-04-27T05:01:40.922Z,3.47
2023-04-27T05:04:08.967Z,3.73
2023-04-27T05:06:36.978Z,3.37
2023-04-27T05:09:06.599Z,3.87
2023-04-27T05:11:34.592Z,3.63
2023-04-27T05:14:02.460Z,3.63
2023-04-27T05:16:30.373Z,3.83
2023-04-27T05:18:58.365Z,3.53
2023-04-27T05:21:26.321Z,3.60
2023-04-27T05:23:54.251Z,3.23
2023-04-27T05:26:23.568Z,3.57
2023-04-27T05:28:51.519Z,4.33
2023-04-27T05:31:19.514Z,4.20
2023-04-27T05:37:09.424Z,3.73
2023-04-27T05:39:37.356Z,4.17
2023-04-27T05:42:07.047Z,3.90
2023-04-27T05:44:34.947Z,3.83
2023-04-27T05:47:02.814Z,3.90
2023-04-27T05:49:30.920Z,4.50
2023-04-27T05:51:59.240Z,4.37
2023-04-27T05:54:27.674Z,3.90
2023-04-27T05:56:55.825Z,3.73
2023-04-27T05:59:25.214Z,4.20
2023-04-27T06:02:27.101Z,3.87
2023-04-27T06:04:55.058Z,7.47
2023-04-27T06:07:23.107Z,5.00
2023-04-27T06:09:51.134Z,5.50
2023-04-27T06:12:19.305Z,5.80
2023-04-27T06:15:21.102Z,6.23
2023-04-27T06:17:50.824Z,6.07
2023-04-27T06:20:18.898Z,5.30
2023-04-27T06:22:47.665Z,5.50
2023-04-27T06:25:15.619Z,6.60
2023-04-27T06:27:43.617Z,5.40
2023-04-27T06:30:12.164Z,6.53
2023-04-27T06:32:40.125Z,7.43
2023-04-27T06:35:10.239Z,6.13
2023-04-27T06:37:38.208Z,6.40
2023-04-27T06:40:06.946Z,7.03
2023-04-27T06:42:34.928Z,6.30
2023-04-27T06:45:02.840Z,6.40
2023-04-27T06:47:30.795Z,5.90
2023-04-27T06:49:58.712Z,5.83
2023-04-27T06:52:28.109Z,6.03
2023-04-27T06:54:56.112Z,6.07
2023-04-27T06:57:26.114Z,5.63
2023-04-27T06:59:54.154Z,5.10
2023-04-27T07:02:23.756Z,4.93
2023-04-27T07:04:53.511Z,5.23
2023-04-27T07:07:21.594Z,5.40
2023-04-27T07:09:51.251Z,5.47
2023-04-27T07:12:19.120Z,5.37
2023-04-27T07:14:47.115Z,4.30
2023-04-27T07:17:15.052Z,5.27
2023-04-27T07:19:42.938Z,4.40
2023-04-27T07:22:11.939Z,4.67
2023-04-27T07:24:39.924Z,5.43
2023-04-27T07:27:09.267Z,5.60
2023-04-27T07:29:38.104Z,5.17
2023-04-27T07:32:07.075Z,5.30
2023-04-27T07:34:48.902Z,5.30
2023-04-27T07:37:20.681Z,5.33
2023-04-27T07:39:50.300Z,5.90
2023-04-27T07:42:22.205Z,5.17
2023-04-27T07:44:50.672Z,5.87
2023-04-27T07:47:18.860Z,5.70
2023-04-27T07:49:47.313Z,5.90
2023-04-27T07:52:16.015Z,5.30
2023-04-27T07:54:47.085Z,4.83
2023-04-27T07:57:15.007Z,5.10
2023-04-27T07:59:44.327Z,5.00
2023-04-27T08:02:19.774Z,4.40
2023-04-27T08:04:48.551Z,4.37
2023-04-27T08:07:17.815Z,4.63
2023-04-27T08:09:45.959Z,4.03
2023-04-27T08:12:13.873Z,4.30
2023-04-27T08:14:42.141Z,4.40
2023-04-27T08:17:11.587Z,4.40
2023-04-27T08:19:39.791Z,4.47
2023-04-27T08:22:08.036Z,4.13
2023-04-27T08:24:36.535Z,4.43
2023-04-27T08:27:04.680Z,4.23
2023-04-27T08:29:32.829Z,4.30
2023-04-27T08:32:01.716Z,4.00
2023-04-27T08:34:31.220Z,3.53
2023-04-27T08:36:59.317Z,2.80
2023-04-27T08:39:27.175Z,2.80
2023-04-27T08:41:55.106Z,3.20
2023-04-27T08:44:23.084Z,3.00
2023-04-27T08:46:52.221Z,2.93
2023-04-27T08:49:21.040Z,2.97
2023-04-27T08:51:50.632Z,2.83
2023-04-27T08:54:18.914Z,3.60
2023-04-27T08:56:46.813Z,2.93
2023-04-27T08:59:16.286Z,3.07
2023-04-27T09:01:49.124Z,3.10
2023-04-27T09:04:18.134Z,2.63
2023-04-27T09:06:46.527Z,2.23
2023-04-27T09:09:24.626Z,2.60
2023-04-27T09:11:52.525Z,2.27
2023-04-27T09:14:21.328Z,2.00
2023-04-27T09:16:55.836Z,2.20
2023-04-27T09:19:27.303Z,1.80
2023-04-27T09:22:04.688Z,2.53
2023-04-27T09:24:34.119Z,2.00
2023-04-27T09:27:03.423Z,1.70
2023-04-27T09:29:34.864Z,2.10
2023-04-27T09:32:03.943Z,1.80
2023-04-27T09:34:42.320Z,1.77
2023-04-27T09:37:11.344Z,1.93
2023-04-27T09:39:41.266Z,2.17
2023-04-27T09:42:09.789Z,4.00
2023-04-27T09:44:37.813Z,2.03
2023-04-27T09:47:06.335Z,1.67
2023-04-27T09:49:36.040Z,2.73
2023-04-27T09:52:04.370Z,2.30
2023-04-27T09:54:33.535Z,1.93
2023-04-27T09:57:08.978Z,2.00
2023-04-27T09:59:50.077Z,1.83
2023-04-27T10:02:25.469Z,2.23
2023-04-27T10:05:04.211Z,2.40
2023-04-27T10:07:33.696Z,1.90
2023-04-27T10:10:04.282Z,1.90
2023-04-27T10:12:37.066Z,1.83
2023-04-27T10:15:13.585Z,2.53
2023-04-27T10:17:49.238Z,1.90
2023-04-27T10:20:18.139Z,1.97
2023-04-27T10:22:47.812Z,1.93
2023-04-27T10:25:18.395Z,1.80
2023-04-27T10:27:52.467Z,1.70
2023-04-27T10:30:21.712Z,1.80
2023-04-27T10:32:53.550Z,2.10
2023-04-27T10:35:22.420Z,2.10
2023-04-27T10:37:52.278Z,2.20
2023-04-27T10:40:20.357Z,2.00
2023-04-27T10:42:49.812Z,2.33
2023-04-27T10:45:31.604Z,2.33
2023-04-27T10:48:01.279Z,1.73
2023-04-27T10:50:29.629Z,1.77
2023-04-27T10:53:01.766Z,1.70
2023-04-27T10:55:30.052Z,2.00
2023-04-27T10:57:58.513Z,1.93
2023-04-27T11:00:27.386Z,2.20
2023-04-27T11:02:57.692Z,2.83
2023-04-27T11:05:29.545Z,2.40
2023-04-27T11:08:05.788Z,2.27
2023-04-27T11:10:33.829Z,2.43
2023-04-27T11:13:07.654Z,2.50
2023-04-27T11:15:43.387Z,2.37
2023-04-27T11:18:12.879Z,2.10
2023-04-27T11:20:40.849Z,2.00
2023-04-27T11:23:12.215Z,2.00
2023-04-27T11:25:40.302Z,2.33
2023-04-27T11:28:18.094Z,2.07
2023-04-27T11:30:46.114Z,2.00
2023-04-27T11:33:15.789Z,1.93
2023-04-27T11:35:43.847Z,2.13
2023-04-27T11:38:17.112Z,2.70
2023-04-27T11:40:45.184Z,2.10
2023-04-27T11:43:13.931Z,2.20
2023-04-27T11:45:43.601Z,2.00
2023-04-27T11:48:16.087Z,2.00
2023-04-27T11:50:47.616Z,2.60
2023-04-27T11:53:17.456Z,2.80
2023-04-27T11:55:53.477Z,2.50
2023-04-27T11:58:22.446Z,2.63
2023-04-27T12:00:50.334Z,2.23
2023-04-27T12:03:19.942Z,2.17
2023-04-27T12:05:51.736Z,2.43
2023-04-27T12:08:19.645Z,1.70
2023-04-27T12:10:47.870Z,2.20
2023-04-27T12:13:16.069Z,2.40
2023-04-27T12:15:44.355Z,2.40
2023-04-27T12:18:12.395Z,2.10
2023-04-27T12:20:41.894Z,2.33
2023-04-27T12:23:09.776Z,2.13
2023-04-27T12:25:37.818Z,2.23
2023-04-27T12:28:06.332Z,2.40
2023-04-27T12:30:34.196Z,1.87
2023-04-27T12:33:02.676Z,2.67
2023-04-27T12:35:32.222Z,1.90
2023-04-27T12:38:02.320Z,2.00
2023-04-27T12:40:30.249Z,2.43
2023-04-27T12:43:00.932Z,2.00
2023-04-27T12:45:29.193Z,2.23
2023-04-27T12:48:03.253Z,1.87
2023-04-27T12:50:32.280Z,1.93
2023-04-27T12:53:01.841Z,1.90
2023-04-27T12:55:33.813Z,1.90
2023-04-27T12:58:02.305Z,15.50
2023-04-27T13:00:30.708Z,9.00
2023-04-27T13:02:59.480Z,2.37
2023-04-27T13:05:29.746Z,1.70
2023-04-27T13:07:59.190Z,1.93
2023-04-27T13:10:29.101Z,1.50
2023-04-27T13:12:57.025Z,1.57
2023-04-27T13:15:24.966Z,1.77
2023-04-27T13:17:53.314Z,1.40
2023-04-27T13:20:21.598Z,1.80
2023-04-27T13:22:49.608Z,1.57
2023-04-27T13:25:17.879Z,1.60
2023-04-27T13:27:47.182Z,1.70
2023-04-27T13:30:15.302Z,1.57
2023-04-27T13:32:43.212Z,1.60
2023-04-27T13:35:11.214Z,1.40
2023-04-27T13:37:40.382Z,1.47
2023-04-27T13:40:11.085Z,1.50
2023-04-27T13:42:39.065Z,1.50
2023-04-27T13:45:08.992Z,5.73
2023-04-27T13:47:37.988Z,1.30
2023-04-27T13:50:06.946Z,1.30
2023-04-27T13:52:35.517Z,1.80
2023-04-27T13:55:03.560Z,1.20
2023-04-27T13:57:31.481Z,1.17
2023-04-27T14:00:00.664Z,1.13
2023-04-27T14:02:31.182Z,1.57
2023-04-27T14:04:59.219Z,1.30
2023-04-27T14:07:27.615Z,1.33
2023-04-27T14:09:55.540Z,1.53
2023-04-27T14:12:23.435Z,1.30
2023-04-27T14:14:51.396Z,1.50
2023-04-27T14:17:19.316Z,1.50
2023-04-27T14:19:48.661Z,1.27
2023-04-27T14:22:16.738Z,1.10
2023-04-27T14:24:44.620Z,1.30
2023-04-27T14:27:12.593Z,1.00
2023-04-27T14:29:40.507Z,1.10
2023-04-27T14:32:08.645Z,1.30
2023-04-27T14:34:36.642Z,1.10
2023-04-27T14:37:06.003Z,1.50
2023-04-27T14:39:34.156Z,1.13
2023-04-27T14:42:02.159Z,1.23
2023-04-27T14:44:31.235Z,1.20
2023-04-27T14:46:59.608Z,1.17
2023-04-27T14:49:27.534Z,1.10
2023-04-27T14:51:55.443Z,1.00
2023-04-27T14:54:24.762Z,1.40
2023-04-27T14:56:52.703Z,1.30
2023-04-27T14:59:20.609Z,1.40
2023-04-27T15:01:48.566Z,1.10
2023-04-27T15:04:16.647Z,1.40
2023-04-27T15:06:44.680Z,1.27
2023-04-27T15:09:13.773Z,1.07
2023-04-27T15:11:43.277Z,1.00
2023-04-27T15:14:12.009Z,1.23
2023-04-27T15:16:39.988Z,1.33
2023-04-27T15:19:09.094Z,1.17
2023-04-27T15:21:37.095Z,1.00
2023-04-27T15:24:05.059Z,1.20
2023-04-27T15:26:33.020Z,1.17
2023-04-27T15:29:02.400Z,1.23
2023-04-27T15:31:30.394Z,1.13
2023-04-27T15:33:58.288Z,1.20
2023-04-27T15:36:28.477Z,1.30
2023-04-27T15:38:56.652Z,1.60
2023-04-27T15:41:24.548Z,1.83
2023-04-27T15:43:52.680Z,1.27
2023-04-27T15:46:22.048Z,1.40
2023-04-27T15:48:49.971Z,1.20
2023-04-27T15:51:18.040Z,1.20
2023-04-27T15:53:45.900Z,1.20
2023-04-27T15:56:13.852Z,1.17
2023-04-27T15:58:41.729Z,1.20
2023-04-27T16:01:09.689Z,1.17
2023-04-27T16:03:39.153Z,1.30
2023-04-27T16:06:07.704Z,0.97
2023-04-27T16:08:36.470Z,1.27
2023-04-27T16:11:04.395Z,1.33
2023-04-27T16:13:32.843Z,0.90
2023-04-27T16:16:00.879Z,1.27
2023-04-27T16:18:28.790Z,1.30
2023-04-27T16:20:58.816Z,1.33
2023-04-27T16:23:26.767Z,1.73
2023-04-27T16:25:54.686Z,1.47
2023-04-27T16:28:22.620Z,2.53
2023-04-27T16:30:50.677Z,1.67
2023-04-27T16:33:21.383Z,1.23
2023-04-27T16:35:50.116Z,1.50
2023-04-27T16:38:19.420Z,1.60
2023-04-27T16:40:47.426Z,1.27
2023-04-27T16:43:15.378Z,1.60
2023-04-27T16:45:43.398Z,1.60
2023-04-27T16:48:12.267Z,1.30
2023-04-27T16:50:41.070Z,1.60
2023-04-27T16:53:09.367Z,1.40
2023-04-27T16:55:38.748Z,1.07
2023-04-27T16:58:07.522Z,1.20
2023-04-27T17:00:35.492Z,1.10
2023-04-27T17:03:03.526Z,1.70
2023-04-27T17:05:32.595Z,1.60
2023-04-27T17:08:00.526Z,1.30
2023-04-27T17:10:29.048Z,1.73
2023-04-27T17:12:58.353Z,1.40
2023-04-27T17:15:28.828Z,1.47
2023-04-27T17:17:56.896Z,1.30
2023-04-27T17:20:24.846Z,1.30
2023-04-27T17:22:52.760Z,1.10
2023-04-27T17:25:20.724Z,1.10
2023-04-27T17:27:48.625Z,1.37
2023-04-27T17:30:18.054Z,1.30
2023-04-27T17:32:46.045Z,1.13
2023-04-27T17:35:13.951Z,1.30
2023-04-27T17:37:41.903Z,20.53
2023-04-27T17:40:10.598Z,3.27
2023-04-27T17:42:38.553Z,1.53
2023-04-27T17:45:07.067Z,1.57
2023-04-27T17:47:36.537Z,1.50
2023-04-27T17:50:04.464Z,1.80
2023-04-27T17:52:32.434Z,1.80
2023-04-27T17:55:00.348Z,1.67
2023-04-27T17:57:28.257Z,1.10
2023-04-27T17:59:56.219Z,1.47
2023-04-27T18:02:24.293Z,1.60
2023-04-27T18:04:53.651Z,1.70
2023-04-27T18:07:21.548Z,1.73
2023-04-27T18:09:49.715Z,1.30
2023-04-27T18:12:17.621Z,1.50
2023-04-27T18:14:45.611Z,1.47
2023-04-27T18:17:13.539Z,2.20
2023-04-27T18:19:41.472Z,1.30
2023-04-27T18:22:10.863Z,1.40
2023-04-27T18:24:40.377Z,1.70
2023-04-27T18:27:08.372Z,1.77
2023-04-27T18:29:36.500Z,1.47
2023-04-27T18:32:05.877Z,1.70
2023-04-27T18:34:33.944Z,1.70
2023-04-27T18:37:01.894Z,1.33
2023-04-27T18:39:31.271Z,1.43
2023-04-27T18:41:59.226Z,1.30
2023-04-27T18:44:27.184Z,1.30
2023-04-27T18:46:55.073Z,1.40
2023-04-27T18:49:23.504Z,1.63
2023-04-27T18:51:51.424Z,1.47
2023-04-27T18:54:19.330Z,1.93
2023-04-27T18:56:53.059Z,1.50
2023-04-27T18:59:21.025Z,1.90
2023-04-27T19:01:48.973Z,2.20
2023-04-27T19:04:17.614Z,1.97
2023-04-27T19:06:47.328Z,1.53
2023-04-27T19:09:15.892Z,1.77
2023-04-27T19:11:44.496Z,2.10
2023-04-27T19:14:16.166Z,2.00
2023-04-27T19:16:44.439Z,1.73
2023-04-27T19:19:12.866Z,1.90
2023-04-27T19:21:42.091Z,1.90
2023-04-27T19:24:10.175Z,1.97
2023-04-27T19:26:38.203Z,1.80
2023-04-27T19:29:06.219Z,1.80
2023-04-27T19:31:35.616Z,1.90
2023-04-27T19:34:04.549Z,2.50
2023-04-27T19:36:33.124Z,2.40
2023-04-27T19:39:01.265Z,2.43
2023-04-27T19:41:29.204Z,2.30
2023-04-27T19:43:57.184Z,2.20
2023-04-27T19:46:26.453Z,2.13
2023-04-27T19:48:55.866Z,1.90
2023-04-27T19:51:23.796Z,1.80
2023-04-27T19:53:51.714Z,1.57
2023-04-27T19:56:19.592Z,1.63
2023-04-27T19:58:47.886Z,1.40
2023-04-27T20:01:15.884Z,1.40
2023-04-27T20:03:44.104Z,1.40
2023-04-27T20:06:14.003Z,1.20
2023-04-27T20:08:42.208Z,1.60
2023-04-27T20:11:10.076Z,1.40
2023-04-27T20:13:37.985Z,1.43
2023-04-27T20:16:06.773Z,1.60
2023-04-27T20:18:35.222Z,1.60
2023-04-27T20:21:03.390Z,1.37
2023-04-27T20:23:32.701Z,1.70
2023-04-27T20:26:00.577Z,1.60
2023-04-27T20:28:30.384Z,1.60
2023-04-27T20:30:58.496Z,1.50
2023-04-27T20:33:26.435Z,1.70
2023-04-27T20:36:03.498Z,1.60
2023-04-27T20:38:35.978Z,1.97
2023-04-27T20:41:05.288Z,1.50
2023-04-27T20:43:33.155Z,1.50
2023-04-27T20:46:01.131Z,1.53
2023-04-27T20:48:29.750Z,1.50
2023-04-27T20:50:57.635Z,1.30
2023-04-27T20:53:26.151Z,1.40
2023-04-27T20:55:55.469Z,1.73
2023-04-27T20:58:23.394Z,2.07
2023-04-27T21:00:51.518Z,1.90
2023-04-27T21:03:19.724Z,2.03
2023-04-27T21:05:49.258Z,1.93
2023-04-27T21:08:18.061Z,1.63
2023-04-27T21:10:45.984Z,1.47
2023-04-27T21:13:15.306Z,1.60
2023-04-27T21:15:43.250Z,2.03
2023-04-27T21:18:19.171Z,1.67
2023-04-27T21:20:57.459Z,1.43
2023-04-27T21:23:25.481Z,1.93
2023-04-27T21:25:53.416Z,1.30
2023-04-27T21:28:22.748Z,1.53
2023-04-27T21:30:50.678Z,1.70
2023-04-27T21:33:18.643Z,1.60
2023-04-27T21:35:46.557Z,1.40
2023-04-27T21:38:14.538Z,1.17
2023-04-27T21:40:42.492Z,1.30
2023-04-27T21:43:10.638Z,1.30
2023-04-27T21:45:40.084Z,1.30
2023-04-27T21:48:08.106Z,1.40
2023-04-27T21:50:36.001Z,1.50
2023-04-27T21:53:03.877Z,1.37
2023-04-27T21:55:31.790Z,1.20
2023-04-27T21:57:59.676Z,1.47
2023-04-27T22:00:27.649Z,1.30
2023-04-27T22:02:57.417Z,1.30
2023-04-27T22:05:29.388Z,1.40
2023-04-27T22:07:58.357Z,1.33
2023-04-27T22:10:26.304Z,1.33
2023-04-27T22:12:54.781Z,1.40
2023-04-27T22:15:22.938Z,1.30
2023-04-27T22:17:51.385Z,1.60
2023-04-27T22:20:21.168Z,1.37
2023-04-27T22:22:49.071Z,1.27
2023-04-27T22:25:17.139Z,1.13
2023-04-27T22:27:45.680Z,1.50
2023-04-27T22:30:14.455Z,1.20
2023-04-27T22:32:42.538Z,1.40
2023-04-27T22:35:24.707Z,1.33
2023-04-27T22:37:55.904Z,1.03
2023-04-27T22:40:24.626Z,1.37
2023-04-27T22:42:52.659Z,1.23
2023-04-27T22:45:20.655Z,1.00
2023-04-27T22:47:49.581Z,1.30
2023-04-27T22:50:17.706Z,1.10
2023-04-27T22:52:45.704Z,1.53
2023-04-27T22:55:15.057Z,1.20
2023-04-27T22:57:42.973Z,1.20
2023-04-27T23:00:12.165Z,1.53
2023-04-27T23:02:40.485Z,1.70
2023-04-27T23:05:09.008Z,1.57
2023-04-27T23:07:37.357Z,1.40
2023-04-27T23:10:06.160Z,1.23
2023-04-27T23:12:35.550Z,1.10
2023-04-27T23:15:03.420Z,1.40
2023-04-27T23:17:31.933Z,1.17
2023-04-27T23:20:00.392Z,1.33
2023-04-27T23:22:28.653Z,1.57
2023-04-27T23:24:56.562Z,1.40
2023-04-27T23:27:25.116Z,1.10
2023-04-27T23:29:54.511Z,1.30
2023-04-27T23:32:22.447Z,1.47
2023-04-27T23:34:50.336Z,1.30
2023-04-27T23:37:18.642Z,1.57
2023-04-27T23:39:46.560Z,1.60
2023-04-27T23:42:14.511Z,1.20
2023-04-27T23:44:42.666Z,1.40
2023-04-27T23:47:12.068Z,1.43
2023-04-27T23:49:39.959Z,1.53
2023-04-27T23:52:07.947Z,1.20
2023-04-27T23:54:36.105Z,1.60
2023-04-27T23:57:04.379Z,1.70
2023-04-27T23:59:34.844Z,1.80
